Time;durP1;ratioP1;P1;durP2;ratioP2;P2;SDS_P1;SDS_P2;PMS_P1;PMS_P2;Temp;Humidity;BMP_temperature;BMP_pressure;BME280_temperature;BME280_humidity;BME280_pressure;Samples;Min_cycle;Max_cycle;Signal;HPM_P1;HPM_P2
2023/12/26 00:02:08;;;;;;;4.38;3.17;;;9.60;99.90;;;;;;5067654;27;20050;-76
2023/12/26 00:04:34;;;;;;;4.00;2.90;;;9.70;99.90;;;;;;5087460;28;20394;-76
2023/12/26 00:06:59;;;;;;;5.28;3.08;;;9.70;99.90;;;;;;5069255;28;20343;-76
2023/12/26 00:09:26;;;;;;;4.38;3.25;;;9.70;99.90;;;;;;5073286;28;20051;-76
2023/12/26 00:11:51;;;;;;;4.43;3.05;;;9.70;99.90;;;;;;5084508;28;20046;-76
2023/12/26 00:14:18;;;;;;;3.75;2.65;;;9.70;99.90;;;;;;5089923;28;20390;-76
2023/12/26 00:16:44;;;;;;;4.43;2.97;;;9.70;99.90;;;;;;5073067;28;20438;-77
2023/12/26 00:19:10;;;;;;;4.10;2.97;;;9.70;99.90;;;;;;5084184;28;20044;-77
2023/12/26 00:21:39;;;;;;;4.97;2.97;;;9.70;99.90;;;;;;5076818;27;20051;-76
2023/12/26 00:24:06;;;;;;;4.88;3.53;;;9.70;99.90;;;;;;5083568;27;20123;-76
2023/12/26 00:26:32;;;;;;;5.63;3.60;;;9.80;99.90;;;;;;5094834;27;20038;-76
2023/12/26 00:28:58;;;;;;;4.13;3.05;;;9.80;99.90;;;;;;5081255;27;20054;-76
2023/12/26 00:31:24;;;;;;;6.63;4.10;;;9.80;99.90;;;;;;5069958;27;20402;-75
2023/12/26 00:33:50;;;;;;;5.50;4.18;;;9.80;99.90;;;;;;5081958;28;20040;-77
2023/12/26 00:36:19;;;;;;;6.22;4.00;;;9.80;99.90;;;;;;5088021;28;20054;-76
2023/12/26 00:38:45;;;;;;;6.85;4.30;;;9.80;99.90;;;;;;5083295;28;20035;-76
2023/12/26 00:41:14;;;;;;;5.75;4.22;;;9.80;99.90;;;;;;5065175;28;20054;-76
2023/12/26 00:43:40;;;;;;;5.10;4.30;;;9.90;99.90;;;;;;5083717;27;20039;-76
2023/12/26 00:46:06;;;;;;;6.40;4.45;;;9.90;99.90;;;;;;5069894;28;20402;-77
2023/12/26 00:48:34;;;;;;;3.95;3.00;;;9.80;99.90;;;;;;5081554;27;20089;-76
2023/12/26 00:51:00;;;;;;;4.63;2.72;;;9.90;99.90;;;;;;5083150;28;20334;-75
2023/12/26 00:53:26;;;;;;;2.92;2.20;;;9.90;99.90;;;;;;5067128;27;20042;-77
2023/12/26 00:55:52;;;;;;;2.80;1.75;;;9.90;99.90;;;;;;5080029;27;20046;-76
2023/12/26 00:58:18;;;;;;;2.03;1.02;;;9.90;99.90;;;;;;5078584;28;20133;-76
2023/12/26 01:00:44;;;;;;;3.03;1.15;;;9.90;99.90;;;;;;5080482;28;20440;-77
2023/12/26 01:03:10;;;;;;;2.45;0.90;;;9.90;99.90;;;;;;5069084;28;20051;-76
2023/12/26 01:05:36;;;;;;;2.17;1.20;;;9.90;99.90;;;;;;5075216;28;20040;-77
2023/12/26 01:08:01;;;;;;;2.72;1.17;;;9.90;99.90;;;;;;5080405;28;20047;-77
2023/12/26 01:10:27;;;;;;;2.03;1.05;;;9.90;99.90;;;;;;5065305;28;20054;-77
2023/12/26 01:12:53;;;;;;;2.88;1.10;;;9.90;99.90;;;;;;5081403;27;20042;-77
2023/12/26 01:15:19;;;;;;;2.75;1.00;;;9.90;99.90;;;;;;5092358;27;20381;-77
2023/12/26 01:17:44;;;;;;;3.35;1.10;;;9.90;99.90;;;;;;5079016;28;20036;-77
2023/12/26 01:20:11;;;;;;;2.97;0.70;;;9.90;99.90;;;;;;5066151;28;20043;-77
2023/12/26 01:22:37;;;;;;;4.03;0.80;;;9.90;99.90;;;;;;5085023;28;20046;-77
2023/12/26 01:25:05;;;;;;;3.70;0.93;;;9.90;99.90;;;;;;5086893;28;20043;-77
2023/12/26 01:27:33;;;;;;;2.85;1.00;;;9.90;99.90;;;;;;5065792;28;20040;-77
2023/12/26 01:30:01;;;;;;;4.60;0.95;;;9.90;99.90;;;;;;5084229;28;20126;-77
2023/12/26 01:32:27;;;;;;;4.28;1.10;;;9.90;99.90;;;;;;5062743;28;20035;-77
2023/12/26 01:34:53;;;;;;;5.35;1.10;;;9.90;99.90;;;;;;5062307;28;20050;-76
2023/12/26 01:37:19;;;;;;;6.55;1.30;;;9.80;99.90;;;;;;5080416;27;20398;-78
2023/12/26 01:39:44;;;;;;;8.90;1.27;;;9.90;99.90;;;;;;5076642;28;20036;-77
2023/12/26 01:42:13;;;;;;;7.20;1.17;;;9.80;99.90;;;;;;5079029;28;20044;-78
2023/12/26 01:44:39;;;;;;;7.05;1.38;;;9.80;99.90;;;;;;5059022;27;20039;-79
2023/12/26 01:47:05;;;;;;;7.60;1.20;;;9.80;99.90;;;;;;5062297;28;20498;-75
2023/12/26 01:49:31;;;;;;;8.93;1.30;;;9.80;99.90;;;;;;5080164;28;20039;-75
2023/12/26 01:51:58;;;;;;;8.82;1.25;;;9.80;99.90;;;;;;5082637;28;20163;-75
2023/12/26 01:54:31;;;;;;;7.90;1.45;;;9.70;99.90;;;;;;5077700;28;20107;-75
2023/12/26 01:56:58;;;;;;;8.15;1.48;;;9.70;99.90;;;;;;5081722;28;20043;-75
2023/12/26 01:59:24;;;;;;;9.00;1.40;;;9.70;99.90;;;;;;5081437;28;20040;-75
2023/12/26 02:01:50;;;;;;;9.93;2.08;;;9.70;99.90;;;;;;5090941;28;20042;-75
2023/12/26 02:04:16;;;;;;;9.15;1.60;;;9.70;99.90;;;;;;5081835;28;20044;-76
2023/12/26 02:06:41;;;;;;;9.65;1.50;;;9.70;99.90;;;;;;5077777;28;20036;-76
2023/12/26 02:09:10;;;;;;;9.95;1.65;;;9.70;99.90;;;;;;5092040;27;20062;-76
2023/12/26 02:11:38;;;;;;;12.07;2.03;;;9.70;99.90;;;;;;5082317;28;20058;-77
2023/12/26 02:14:05;;;;;;;15.82;2.05;;;9.70;99.90;;;;;;5067660;28;20503;-77
2023/12/26 02:16:35;;;;;;;8.68;1.80;;;9.60;99.90;;;;;;5080560;28;20036;-77
2023/12/26 02:19:01;;;;;;;15.90;2.17;;;9.60;99.90;;;;;;5080233;28;20048;-77
2023/12/26 02:21:26;;;;;;;15.48;2.17;;;9.60;99.90;;;;;;5071815;28;20829;-77
2023/12/26 02:23:56;;;;;;;14.90;2.08;;;9.60;99.90;;;;;;5062669;28;20032;-77
2023/12/26 02:26:24;;;;;;;11.82;1.88;;;9.60;99.90;;;;;;5067057;27;20552;-77
2023/12/26 02:28:52;;;;;;;10.77;1.70;;;9.60;99.90;;;;;;5083769;28;20127;-77
2023/12/26 02:31:18;;;;;;;9.60;1.63;;;9.60;99.90;;;;;;5068395;28;20153;-77
2023/12/26 02:33:48;;;;;;;10.95;2.13;;;9.60;99.90;;;;;;5060411;28;20254;-76
2023/12/26 02:36:14;;;;;;;10.10;2.00;;;9.60;99.90;;;;;;5073308;28;20113;-76
2023/12/26 02:38:40;;;;;;;9.80;1.90;;;9.60;99.90;;;;;;5069647;28;20136;-77
2023/12/26 02:41:06;;;;;;;13.93;2.22;;;9.50;99.90;;;;;;5065035;28;20039;-76
2023/12/26 02:43:35;;;;;;;12.73;2.30;;;9.50;99.90;;;;;;5064194;28;20394;-75
2023/12/26 02:46:01;;;;;;;10.82;2.05;;;9.50;99.90;;;;;;5082364;28;20044;-75
2023/12/26 02:48:30;;;;;;;15.32;2.42;;;9.50;99.90;;;;;;5071181;28;20373;-75
2023/12/26 02:50:56;;;;;;;11.48;2.35;;;9.50;99.90;;;;;;5060092;28;20047;-77
2023/12/26 02:53:21;;;;;;;12.07;2.20;;;9.50;99.90;;;;;;5084916;28;20039;-75
2023/12/26 02:55:52;;;;;;;13.18;2.50;;;9.50;99.90;;;;;;5091716;28;20502;-76
2023/12/26 02:58:18;;;;;;;;;;;9.40;99.90;;;;;;5070382;28;20047;-76
2023/12/26 03:00:44;;;;;;;11.35;2.13;;;9.40;99.90;;;;;;5088112;28;19928;-76
2023/12/26 03:03:09;;;;;;;15.95;2.65;;;9.40;99.90;;;;;;5070089;28;20497;-76
2023/12/26 03:05:35;;;;;;;10.23;2.30;;;9.40;99.90;;;;;;5074084;28;20044;-75
2023/12/26 03:08:01;;;;;;;13.10;2.42;;;9.40;99.90;;;;;;5077404;28;20482;-76
2023/12/26 03:10:27;;;;;;;15.88;2.78;;;9.40;99.90;;;;;;5070254;28;20371;-76
2023/12/26 03:12:53;;;;;;;14.43;2.85;;;9.40;99.90;;;;;;5066437;28;20043;-76
2023/12/26 03:15:19;;;;;;;13.13;2.30;;;9.40;99.90;;;;;;5054375;28;20402;-76
2023/12/26 03:17:45;;;;;;;12.38;2.05;;;9.40;99.90;;;;;;5073831;28;20115;-77
2023/12/26 03:20:11;;;;;;;12.13;2.40;;;9.40;99.90;;;;;;5074041;28;20048;-75
2023/12/26 03:22:39;;;;;;;11.70;2.25;;;9.40;99.90;;;;;;5058017;28;20394;-75
2023/12/26 03:25:06;;;;;;;8.90;1.98;;;9.40;99.90;;;;;;5059012;28;20060;-76
2023/12/26 03:27:32;;;;;;;7.40;1.67;;;9.30;99.90;;;;;;5079504;28;20040;-75
2023/12/26 03:29:58;;;;;;;7.20;1.70;;;9.20;99.90;;;;;;5077770;28;20039;-76
2023/12/26 03:32:24;;;;;;;6.28;1.50;;;9.00;99.90;;;;;;5072841;28;20043;-76
2023/12/26 03:34:49;;;;;;;5.30;1.45;;;8.80;99.90;;;;;;5063303;28;20389;-76
2023/12/26 03:37:15;;;;;;;6.32;1.13;;;8.60;99.90;;;;;;5081932;28;20119;-76
2023/12/26 03:39:41;;;;;;;6.47;1.15;;;8.50;99.90;;;;;;5074417;28;20845;-77
2023/12/26 03:42:07;;;;;;;6.82;1.20;;;8.30;99.90;;;;;;5072848;28;20485;-77
2023/12/26 03:44:33;;;;;;;5.40;1.30;;;8.20;99.90;;;;;;5079419;28;20587;-77
2023/12/26 03:46:59;;;;;;;5.18;1.20;;;8.10;99.90;;;;;;5074008;28;20086;-77
2023/12/26 03:49:28;;;;;;;6.25;1.30;;;7.90;99.90;;;;;;5072051;28;20051;-77
2023/12/26 03:51:54;;;;;;;5.00;1.40;;;7.80;99.90;;;;;;5059340;28;20127;-77
2023/12/26 03:54:22;;;;;;;6.57;1.33;;;7.80;99.90;;;;;;5072852;28;20059;-77
2023/12/26 03:56:47;;;;;;;7.50;1.73;;;7.70;99.90;;;;;;5055427;28;20498;-76
2023/12/26 03:59:13;;;;;;;10.23;1.80;;;7.70;99.90;;;;;;5071959;28;20047;-76
2023/12/26 04:01:39;;;;;;;6.70;1.50;;;7.70;99.90;;;;;;5060288;28;20036;-75
2023/12/26 04:04:05;;;;;;;10.55;1.63;;;7.70;99.90;;;;;;5088034;28;20055;-76
2023/12/26 04:06:30;;;;;;;13.30;2.40;;;7.70;99.90;;;;;;5053021;28;20098;-77
2023/12/26 04:08:56;;;;;;;11.13;2.25;;;7.70;99.90;;;;;;5075838;28;20047;-76
2023/12/26 04:11:23;;;;;;;11.85;2.08;;;7.80;99.90;;;;;;5074046;28;20076;-76
2023/12/26 04:13:48;;;;;;;14.55;2.72;;;7.70;99.90;;;;;;5068392;28;20067;-76
2023/12/26 04:16:14;;;;;;;9.73;2.10;;;7.70;99.90;;;;;;5070352;28;20489;-76
2023/12/26 04:18:40;;;;;;;11.52;2.55;;;7.70;99.90;;;;;;5066088;28;20371;-77
2023/12/26 04:21:06;;;;;;;11.27;2.28;;;7.70;99.90;;;;;;5062569;28;20058;-76
2023/12/26 04:23:32;;;;;;;14.13;2.33;;;7.70;99.90;;;;;;5073755;28;20090;-77
2023/12/26 04:25:57;;;;;;;14.18;2.67;;;7.70;99.90;;;;;;5081833;28;20032;-77
2023/12/26 04:28:23;;;;;;;17.10;3.28;;;7.70;99.90;;;;;;5064777;28;20060;-77
2023/12/26 04:30:49;;;;;;;15.45;3.22;;;7.70;99.90;;;;;;5070613;28;20029;-77
2023/12/26 04:33:15;;;;;;;14.15;2.90;;;7.70;99.90;;;;;;5069855;28;20512;-77
2023/12/26 04:35:43;;;;;;;14.57;3.08;;;7.70;99.90;;;;;;5076197;28;20052;-77
2023/12/26 04:38:10;;;;;;;18.40;3.05;;;7.70;99.90;;;;;;5088433;28;20040;-76
2023/12/26 04:40:36;;;;;;;10.50;2.60;;;7.70;99.90;;;;;;5075377;28;20060;-77
2023/12/26 04:43:02;;;;;;;14.90;3.08;;;7.70;99.90;;;;;;5085956;28;20093;-77
2023/12/26 04:45:28;;;;;;;15.27;3.20;;;7.70;99.90;;;;;;5071543;28;20090;-77
2023/12/26 04:47:54;;;;;;;12.75;2.92;;;7.60;99.90;;;;;;5070616;28;20040;-77
2023/12/26 04:50:20;;;;;;;15.00;3.03;;;7.60;99.90;;;;;;5063685;28;20040;-77
2023/12/26 04:52:45;;;;;;;16.98;2.83;;;7.60;99.90;;;;;;5080196;28;20379;-77
2023/12/26 04:55:11;;;;;;;14.65;3.00;;;7.60;99.90;;;;;;5060997;28;20125;-77
2023/12/26 04:57:37;;;;;;;14.15;2.90;;;7.50;99.90;;;;;;5069929;28;20042;-75
2023/12/26 05:00:03;;;;;;;13.20;2.72;;;7.60;99.90;;;;;;5063874;28;20044;-75
2023/12/26 05:02:33;;;;;;;16.58;4.00;;;7.60;99.90;;;;;;5064313;28;20048;-78
2023/12/26 05:04:58;;;;;;;13.95;2.80;;;7.60;99.90;;;;;;5078360;28;20043;-76
2023/12/26 05:07:24;;;;;;;13.52;2.90;;;7.60;99.90;;;;;;5071083;28;20444;-76
2023/12/26 05:09:50;;;;;;;16.00;3.53;;;7.60;99.90;;;;;;5072438;28;20068;-76
2023/12/26 05:12:19;;;;;;;11.00;2.92;;;7.60;99.90;;;;;;5054510;28;20104;-76
2023/12/26 05:14:44;;;;;;;15.80;3.20;;;7.60;99.90;;;;;;5078080;28;20044;-76
2023/12/26 05:17:11;;;;;;;14.70;2.92;;;7.60;99.90;;;;;;5056690;28;20052;-77
2023/12/26 05:19:39;;;;;;;15.88;3.55;;;7.60;99.90;;;;;;5075392;28;20043;-77
2023/12/26 05:22:05;;;;;;;16.80;3.17;;;7.60;99.90;;;;;;5074111;28;20568;-76
2023/12/26 05:24:34;;;;;;;14.60;2.65;;;7.60;99.90;;;;;;5074554;28;20071;-76
2023/12/26 05:27:00;;;;;;;16.40;2.73;;;7.70;99.90;;;;;;5069079;28;20043;-76
2023/12/26 05:29:26;;;;;;;13.07;2.65;;;7.70;99.90;;;;;;5070913;28;20048;-76
2023/12/26 05:31:52;;;;;;;14.30;2.92;;;7.70;99.90;;;;;;5083121;28;20037;-77
2023/12/26 05:34:18;;;;;;;14.05;2.53;;;7.80;99.90;;;;;;5059913;28;20040;-77
2023/12/26 05:36:44;;;;;;;12.82;2.55;;;7.80;99.90;;;;;;5073818;28;20202;-76
2023/12/26 05:39:10;;;;;;;13.23;2.42;;;7.80;99.90;;;;;;5067781;28;20478;-76
2023/12/26 05:41:36;;;;;;;16.17;2.90;;;7.80;99.90;;;;;;5058867;28;20083;-76
2023/12/26 05:44:02;;;;;;;13.48;3.08;;;7.90;99.90;;;;;;5061736;28;20055;-76
2023/12/26 05:46:31;;;;;;;13.10;2.85;;;7.90;99.90;;;;;;5070810;28;20040;-77
2023/12/26 05:48:58;;;;;;;10.75;2.30;;;7.90;99.90;;;;;;5062112;28;20039;-77
2023/12/26 05:51:24;;;;;;;10.75;2.45;;;8.00;99.90;;;;;;5060768;28;20054;-77
2023/12/26 05:53:49;;;;;;;15.18;2.80;;;8.00;99.90;;;;;;5072382;28;20100;-77
2023/12/26 05:56:15;;;;;;;12.40;2.55;;;8.00;99.90;;;;;;5077439;28;20504;-75
2023/12/26 05:58:41;;;;;;;10.55;2.20;;;8.10;99.90;;;;;;5061331;28;20067;-77
2023/12/26 06:01:11;;;;;;;10.75;2.03;;;8.10;99.90;;;;;;5076822;28;20477;-77
2023/12/26 06:03:37;;;;;;;12.20;2.40;;;8.10;99.90;;;;;;5068548;28;20059;-77
2023/12/26 06:06:04;;;;;;;12.75;2.60;;;8.20;99.90;;;;;;5071076;28;20574;-77
2023/12/26 06:08:30;;;;;;;11.13;2.53;;;8.20;99.90;;;;;;5074037;27;20493;-76
2023/12/26 06:10:56;;;;;;;11.13;2.92;;;8.30;99.90;;;;;;5061735;28;20238;-76
2023/12/26 06:13:22;;;;;;;10.77;2.05;;;8.30;99.90;;;;;;5064571;28;20043;-76
2023/12/26 06:15:47;;;;;;;13.15;2.83;;;8.30;99.90;;;;;;5056789;28;20071;-76
2023/12/26 06:18:13;;;;;;;11.93;2.20;;;8.30;99.90;;;;;;5066256;28;20040;-77
2023/12/26 06:20:39;;;;;;;10.93;2.40;;;8.40;99.90;;;;;;5062970;28;20048;-76
2023/12/26 06:23:05;;;;;;;14.88;2.60;;;8.40;99.90;;;;;;5054705;28;20044;-76
2023/12/26 06:25:30;;;;;;;12.48;2.70;;;8.40;99.90;;;;;;5075509;28;20125;-76
2023/12/26 06:27:56;;;;;;;15.05;3.05;;;8.50;99.90;;;;;;5065577;28;20044;-76
2023/12/26 06:30:22;;;;;;;10.98;2.35;;;8.40;99.90;;;;;;5084144;28;20089;-76
2023/12/26 06:32:47;;;;;;;12.30;2.72;;;8.50;99.90;;;;;;5077202;28;20131;-76
2023/12/26 06:35:13;;;;;;;10.77;2.33;;;8.50;99.90;;;;;;5088726;28;21154;-75
2023/12/26 06:37:39;;;;;;;11.18;2.28;;;8.50;99.90;;;;;;5093914;28;20048;-75
2023/12/26 06:40:06;;;;;;;9.50;1.98;;;8.50;99.90;;;;;;5082099;28;20046;-75
2023/12/26 06:42:31;;;;;;;12.48;2.17;;;8.50;99.90;;;;;;5070704;28;20047;-75
2023/12/26 06:44:57;;;;;;;10.98;2.60;;;8.60;99.90;;;;;;5092346;28;20386;-75
2023/12/26 06:47:23;;;;;;;12.70;2.45;;;8.60;99.90;;;;;;5081019;28;20050;-76
2023/12/26 06:49:53;;;;;;;10.98;2.70;;;8.60;99.90;;;;;;5069354;28;20068;-76
2023/12/26 06:52:19;;;;;;;12.27;3.28;;;8.60;99.90;;;;;;5077556;28;20059;-76
2023/12/26 06:54:44;;;;;;;12.93;3.13;;;8.60;99.90;;;;;;5066793;28;20051;-75
2023/12/26 06:57:15;;;;;;;11.77;2.42;;;8.60;99.90;;;;;;5081418;28;20048;-76
2023/12/26 06:59:46;;;;;;;14.25;3.30;;;8.60;99.90;;;;;;5068196;28;20109;-75
2023/12/26 07:02:12;;;;;;;12.00;2.60;;;8.60;99.90;;;;;;5064989;28;20333;-75
2023/12/26 07:04:42;;;;;;;15.32;3.08;;;8.60;99.90;;;;;;5088241;28;20043;-76
2023/12/26 07:07:08;;;;;;;16.52;3.03;;;8.60;99.90;;;;;;5074721;28;20476;-75
2023/12/26 07:09:34;;;;;;;12.02;2.40;;;8.60;99.90;;;;;;5085515;28;20036;-75
2023/12/26 07:11:59;;;;;;;12.43;2.75;;;8.60;99.90;;;;;;5071284;28;20038;-74
2023/12/26 07:14:29;;;;;;;13.70;3.10;;;8.60;99.90;;;;;;5080468;28;20571;-75
2023/12/26 07:16:58;;;;;;;14.95;2.85;;;8.60;99.90;;;;;;5066214;28;20040;-75
2023/12/26 07:19:23;;;;;;;17.90;3.15;;;8.60;99.90;;;;;;5076677;28;20055;-75
2023/12/26 07:21:49;;;;;;;11.45;2.78;;;8.60;99.90;;;;;;5079488;28;20077;-75
2023/12/26 07:24:15;;;;;;;17.13;3.45;;;8.60;99.90;;;;;;5063016;28;20367;-75
2023/12/26 07:26:41;;;;;;;12.35;2.50;;;8.60;99.90;;;;;;5075840;28;20044;-75
2023/12/26 07:29:07;;;;;;;18.90;2.75;;;8.60;99.90;;;;;;5065829;28;20043;-76
2023/12/26 07:31:32;;;;;;;14.63;3.08;;;8.60;99.90;;;;;;5082773;28;20028;-76
2023/12/26 07:34:00;;;;;;;18.38;3.17;;;8.60;99.90;;;;;;5084389;28;20044;-74
2023/12/26 07:36:26;;;;;;;15.35;3.17;;;8.60;99.90;;;;;;5087784;28;20048;-75
2023/12/26 07:38:51;;;;;;;16.50;2.88;;;8.60;99.90;;;;;;5093075;27;20047;-75
2023/12/26 07:41:17;;;;;;;16.20;3.47;;;8.50;99.90;;;;;;5069779;27;20126;-76
2023/12/26 07:43:44;;;;;;;15.07;3.10;;;8.50;99.90;;;;;;5067384;27;20397;-76
2023/12/26 07:46:10;;;;;;;15.75;3.00;;;8.50;99.90;;;;;;5088459;28;20397;-75
2023/12/26 07:48:36;;;;;;;10.27;2.58;;;8.50;99.90;;;;;;5067608;28;20058;-75
2023/12/26 07:51:02;;;;;;;14.77;2.80;;;8.50;99.90;;;;;;5061725;28;20042;-75
2023/12/26 07:53:28;;;;;;;15.48;4.05;;;8.50;99.90;;;;;;5082362;28;20383;-75
2023/12/26 07:55:53;;;;;;;12.15;3.13;;;8.60;99.90;;;;;;5066990;28;20043;-74
2023/12/26 07:58:19;;;;;;;15.77;3.35;;;8.50;99.90;;;;;;5065455;28;20044;-74
2023/12/26 08:00:45;;;;;;;14.80;3.03;;;8.50;99.90;;;;;;5083234;28;20634;-73
2023/12/26 08:03:15;;;;;;;15.63;3.08;;;8.50;99.90;;;;;;5083948;28;20451;-74
2023/12/26 08:05:44;;;;;;;14.82;3.08;;;8.50;99.90;;;;;;5087098;28;20044;-80
2023/12/26 08:08:11;;;;;;;14.07;3.88;;;8.50;99.90;;;;;;5064458;28;20039;-79
2023/12/26 08:10:37;;;;;;;11.27;3.08;;;8.50;99.90;;;;;;5083906;28;20048;-80
2023/12/26 08:13:03;;;;;;;15.60;3.33;;;8.50;99.90;;;;;;5072724;27;20397;-79
2023/12/26 08:15:30;;;;;;;10.73;3.00;;;8.50;99.90;;;;;;5070640;27;20048;-81
2023/12/26 08:17:56;;;;;;;14.25;3.47;;;8.50;99.90;;;;;;5075703;27;20054;-79
2023/12/26 08:20:22;;;;;;;15.23;3.25;;;8.40;99.90;;;;;;5083559;28;20464;-79
2023/12/26 08:22:48;;;;;;;20.15;3.40;;;8.50;99.90;;;;;;5087166;28;20390;-81
2023/12/26 08:25:14;;;;;;;15.98;3.15;;;8.50;99.90;;;;;;5082599;28;20048;-79
2023/12/26 08:27:40;;;;;;;13.02;3.25;;;8.50;99.90;;;;;;5093184;27;20047;-80
2023/12/26 08:30:07;;;;;;;13.88;3.28;;;8.50;99.90;;;;;;5070654;28;20122;-80
2023/12/26 08:32:34;;;;;;;15.25;2.85;;;8.50;99.90;;;;;;5087610;28;20314;-81
2023/12/26 08:35:00;;;;;;;14.32;2.55;;;8.50;99.90;;;;;;5083363;27;20565;-80
2023/12/26 08:37:27;;;;;;;14.52;3.42;;;8.50;99.90;;;;;;5082798;28;20044;-74
2023/12/26 08:39:53;;;;;;;13.10;3.30;;;8.60;99.90;;;;;;5072341;27;20068;-74
2023/12/26 08:42:19;;;;;;;13.07;3.05;;;8.60;99.90;;;;;;5059042;28;20130;-74
2023/12/26 08:44:45;;;;;;;15.27;3.33;;;8.60;99.90;;;;;;5071990;28;20213;-74
2023/12/26 08:47:10;;;;;;;14.45;3.30;;;8.60;99.90;;;;;;5065642;28;20816;-75
2023/12/26 08:49:36;;;;;;;14.68;3.20;;;8.60;99.90;;;;;;5071088;28;20116;-75
2023/12/26 08:52:02;;;;;;;13.48;3.63;;;8.60;99.90;;;;;;5091532;27;20486;-75
2023/12/26 08:54:28;;;;;;;15.68;3.25;;;8.70;99.90;;;;;;5087163;27;20043;-75
2023/12/26 08:56:57;;;;;;;18.85;3.30;;;8.70;99.90;;;;;;5087601;27;20039;-75
2023/12/26 08:59:23;;;;;;;15.13;3.33;;;8.70;99.90;;;;;;5086205;27;20081;-75
2023/12/26 09:01:49;;;;;;;16.58;3.85;;;8.60;99.90;;;;;;5078081;28;20063;-76
2023/12/26 09:04:15;;;;;;;16.38;3.92;;;8.60;99.90;;;;;;5068648;28;20203;-76
2023/12/26 09:06:41;;;;;;;13.20;3.40;;;8.60;99.90;;;;;;5077954;28;20044;-76
2023/12/26 09:09:07;;;;;;;14.68;3.38;;;8.70;99.90;;;;;;5077843;28;21010;-76
2023/12/26 09:11:33;;;;;;;14.00;3.30;;;8.70;99.90;;;;;;5072836;27;20047;-75
2023/12/26 09:13:58;;;;;;;14.20;3.33;;;8.70;99.90;;;;;;5083973;28;20071;-76
2023/12/26 09:16:24;;;;;;;13.65;2.97;;;8.70;99.90;;;;;;5083385;27;20058;-75
2023/12/26 09:18:50;;;;;;;16.55;3.17;;;8.70;99.90;;;;;;5089092;28;20055;-76
2023/12/26 09:21:16;;;;;;;15.75;3.00;;;8.70;99.90;;;;;;5080163;28;20040;-76
2023/12/26 09:23:42;;;;;;;12.95;3.10;;;8.70;99.90;;;;;;5058262;28;20043;-76
2023/12/26 09:26:08;;;;;;;18.00;3.90;;;8.70;99.90;;;;;;5083139;27;20405;-76
2023/12/26 09:28:33;;;;;;;15.00;3.10;;;8.70;99.90;;;;;;5078564;27;20052;-76
2023/12/26 09:30:59;;;;;;;23.05;4.75;;;8.70;99.90;;;;;;5072120;28;20509;-77
2023/12/26 09:33:28;;;;;;;13.38;3.38;;;8.80;99.90;;;;;;5067697;28;20406;-77
2023/12/26 09:35:54;;;;;;;16.83;3.47;;;8.70;99.90;;;;;;5077207;28;20135;-77
2023/12/26 09:38:20;;;;;;;13.85;2.95;;;8.70;99.90;;;;;;5076018;28;20138;-77
2023/12/26 09:40:47;;;;;;;16.13;3.38;;;8.80;99.90;;;;;;5071861;28;20116;-76
2023/12/26 09:43:14;;;;;;;13.82;4.00;;;8.80;99.90;;;;;;5080316;27;20051;-76
2023/12/26 09:45:40;;;;;;;14.50;3.05;;;8.80;99.90;;;;;;5058836;28;20048;-76
2023/12/26 09:48:11;;;;;;;13.15;3.22;;;8.80;99.90;;;;;;5067838;28;20054;-76
2023/12/26 09:50:37;;;;;;;19.88;3.67;;;8.90;99.90;;;;;;5062378;28;20130;-77
2023/12/26 09:53:07;;;;;;;16.95;3.03;;;8.90;99.90;;;;;;5083822;28;20054;-77
2023/12/26 09:55:32;;;;;;;14.98;3.28;;;8.90;99.90;;;;;;5082158;28;20040;-77
2023/12/26 09:57:59;;;;;;;14.82;2.95;;;9.00;99.90;;;;;;5087263;28;20035;-76
2023/12/26 10:00:29;;;;;;;14.35;3.65;;;8.90;99.90;;;;;;5074098;28;20051;-77
2023/12/26 10:02:55;;;;;;;15.95;4.07;;;8.90;99.90;;;;;;5079694;27;20040;-76
2023/12/26 10:05:22;;;;;;;15.38;3.63;;;9.00;99.90;;;;;;5083354;28;20043;-76
2023/12/26 10:07:48;;;;;;;14.85;3.33;;;9.00;99.90;;;;;;5081846;28;20048;-76
2023/12/26 10:10:20;;;;;;;14.32;3.42;;;9.00;99.90;;;;;;5061989;28;20060;-77
2023/12/26 10:12:49;;;;;;;15.80;3.63;;;9.10;99.90;;;;;;5078165;28;20036;-76
2023/12/26 10:15:16;;;;;;;13.52;3.00;;;9.20;99.90;;;;;;5060783;28;20048;-76
2023/12/26 10:17:43;;;;;;;15.15;4.07;;;9.20;99.90;;;;;;5083908;28;20103;-76
2023/12/26 10:20:15;;;;;;;17.63;3.70;;;9.20;99.90;;;;;;5065711;28;20036;-77
2023/12/26 10:22:42;;;;;;;17.25;3.50;;;9.10;99.90;;;;;;5085505;28;20565;-76
2023/12/26 10:25:09;;;;;;;18.15;3.65;;;9.10;99.90;;;;;;5067063;27;20362;-76
2023/12/26 10:27:36;;;;;;;18.48;3.30;;;9.10;99.90;;;;;;5075253;28;20052;-76
2023/12/26 10:30:03;;;;;;;17.33;3.88;;;9.10;99.90;;;;;;5088141;27;20045;-76
2023/12/26 10:32:30;;;;;;;18.52;3.45;;;9.00;99.90;;;;;;5064738;28;20071;-76
2023/12/26 10:34:56;;;;;;;22.63;3.42;;;9.00;99.90;;;;;;5066001;28;20043;-76
2023/12/26 10:37:27;;;;;;;15.07;3.63;;;8.90;99.90;;;;;;5078932;27;20039;-76
2023/12/26 10:39:53;;;;;;;15.65;4.28;;;8.90;99.90;;;;;;5082057;28;20105;-77
2023/12/26 10:42:19;;;;;;;15.20;3.83;;;8.80;99.90;;;;;;5064807;28;20044;-77
2023/12/26 10:45:01;;;;;;;16.92;3.80;;;8.80;99.90;;;;;;5063489;28;20047;-77
2023/12/26 10:47:30;;;;;;;14.85;3.20;;;8.80;99.90;;;;;;5066746;28;20139;-77
2023/12/26 10:49:59;;;;;;;18.15;3.97;;;8.80;99.90;;;;;;5065088;28;20040;-77
2023/12/26 10:52:29;;;;;;;16.27;3.83;;;8.90;99.90;;;;;;5080082;28;20554;-77
2023/12/26 10:55:03;;;;;;;17.90;3.63;;;8.80;99.90;;;;;;5056318;28;20039;-77
2023/12/26 10:57:32;;;;;;;18.65;4.07;;;8.90;99.90;;;;;;5067368;28;20134;-77
2023/12/26 13:51:55;;;;;;;10.38;2.47;;;8.60;99.90;;;;;;5077497;28;20048;-75
2023/12/26 13:54:21;;;;;;;10.48;2.22;;;8.50;99.90;;;;;;5068215;28;20043;-75
2023/12/26 13:56:46;;;;;;;7.97;2.17;;;8.50;99.90;;;;;;5075170;28;20032;-75
2023/12/26 13:59:13;;;;;;;7.95;1.77;;;8.50;99.90;;;;;;5064792;28;20039;-75
2023/12/26 14:01:38;;;;;;;8.25;1.65;;;8.50;99.90;;;;;;5071751;28;20048;-75
2023/12/26 14:04:04;;;;;;;6.13;1.08;;;8.60;99.90;;;;;;5092583;27;20062;-75
2023/12/26 14:06:30;;;;;;;9.23;1.45;;;8.50;99.90;;;;;;5066913;28;20054;-75
2023/12/26 14:08:59;;;;;;;7.25;1.50;;;8.50;99.90;;;;;;5082427;27;20038;-75
2023/12/26 14:11:26;;;;;;;7.80;1.55;;;8.50;99.90;;;;;;5080891;27;20039;-76
2023/12/26 14:13:52;;;;;;;7.82;1.20;;;8.50;99.90;;;;;;5079097;28;20118;-75
2023/12/26 14:16:22;;;;;;;7.00;1.20;;;8.50;99.90;;;;;;5068098;28;20126;-75
2023/12/26 14:19:07;;;;;;;6.72;1.65;;;8.50;99.90;;;;;;5068899;28;20469;-75
2023/12/26 14:21:33;;;;;;;6.65;1.13;;;8.50;99.90;;;;;;5079555;28;20142;-75
2023/12/26 14:23:59;;;;;;;4.75;0.98;;;8.40;99.90;;;;;;5076445;28;20435;-75
2023/12/26 14:26:25;;;;;;;5.30;0.88;;;8.40;99.90;;;;;;5081693;27;20725;-76
2023/12/26 14:28:51;;;;;;;5.97;1.20;;;8.40;99.90;;;;;;5072104;27;20075;-74
2023/12/26 14:31:18;;;;;;;4.13;0.75;;;8.30;99.90;;;;;;5091517;28;20071;-75
2023/12/26 14:33:43;;;;;;;9.77;1.42;;;8.20;99.90;;;;;;5071435;28;20066;-74
2023/12/26 14:36:10;;;;;;;6.10;1.30;;;8.20;99.90;;;;;;5066877;28;20063;-75
2023/12/26 14:38:36;;;;;;;6.82;1.13;;;8.10;99.90;;;;;;5069652;28;20421;-75
2023/12/26 14:41:01;;;;;;;6.25;1.30;;;8.00;99.90;;;;;;5085298;28;20043;-75
2023/12/26 14:43:27;;;;;;;7.45;1.40;;;8.00;99.90;;;;;;5078524;28;20490;-75
2023/12/26 14:45:53;;;;;;;7.63;1.35;;;7.90;99.90;;;;;;5062630;28;20048;-75
2023/12/26 14:48:19;;;;;;;8.48;1.27;;;7.90;99.90;;;;;;5085254;27;20039;-75
2023/12/26 14:50:44;;;;;;;9.57;1.60;;;7.80;99.90;;;;;;5070875;28;20077;-75
2023/12/26 14:53:10;;;;;;;6.82;1.35;;;7.80;99.90;;;;;;5078785;28;20036;-75
2023/12/26 14:55:36;;;;;;;7.07;1.40;;;7.70;99.90;;;;;;5080450;28;20070;-76
2023/12/26 14:58:02;;;;;;;6.45;1.30;;;7.70;99.90;;;;;;5064705;28;20044;-75
2023/12/26 15:00:27;;;;;;;9.90;1.63;;;7.70;99.90;;;;;;5084779;28;20051;-75
2023/12/26 15:02:53;;;;;;;6.53;1.25;;;7.70;99.90;;;;;;5080020;28;20067;-74
2023/12/26 15:05:19;;;;;;;10.32;1.70;;;7.60;99.90;;;;;;5069095;28;20048;-75
2023/12/26 15:07:45;;;;;;;7.45;1.90;;;7.50;99.90;;;;;;5080473;28;20244;-76
2023/12/26 15:10:11;;;;;;;8.65;1.80;;;7.50;99.90;;;;;;5066796;28;20131;-75
2023/12/26 15:12:36;;;;;;;9.00;1.25;;;7.50;99.90;;;;;;5066085;28;20125;-76
2023/12/26 15:15:03;;;;;;;6.82;1.65;;;7.50;99.90;;;;;;5074979;28;20043;-75
2023/12/26 15:17:29;;;;;;;9.80;1.92;;;7.40;99.90;;;;;;5089834;28;20048;-75
2023/12/26 15:19:55;;;;;;;6.53;1.40;;;7.40;99.90;;;;;;5068361;28;20109;-75
2023/12/26 15:22:21;;;;;;;12.25;1.80;;;7.40;99.90;;;;;;5069186;28;20050;-75
2023/12/26 15:24:47;;;;;;;10.00;1.73;;;7.30;99.90;;;;;;5085433;28;20039;-76
2023/12/26 15:27:13;;;;;;;8.07;1.35;;;7.30;99.90;;;;;;5065245;28;20036;-75
2023/12/26 15:29:39;;;;;;;9.90;1.70;;;7.20;99.90;;;;;;5072415;28;20051;-76
2023/12/26 15:32:09;;;;;;;9.85;1.92;;;7.20;99.90;;;;;;5083466;28;20036;-76
2023/12/26 15:34:36;;;;;;;9.18;1.80;;;7.20;99.90;;;;;;5079387;28;20085;-76
2023/12/26 15:37:03;;;;;;;8.73;1.50;;;7.10;99.90;;;;;;5061371;28;20051;-76
2023/12/26 15:39:29;;;;;;;7.55;1.38;;;7.10;99.90;;;;;;5076388;28;20051;-76